AirNav   Pilot Hours Calculator
 
 1658 users online  

08CT Seavair's Landing Seaplane Base
Winsted, Connecticut, USA

GOING TO WINSTED?


FAA INFORMATION EFFECTIVE 02 JANUARY 2020

Location

FAA Identifier: 08CT
Lat/Long: 41-53-45.5900N 073-05-35.3300W
41-53.759833N 073-05.588833W
41.8959972,-73.0931472
(estimated)
Elevation: 881 ft. / 269 m (estimated)
Variation: 14W (2000)
From city: 1 mile SW of WINSTED, CT
Time zone: UTC -5 (UTC -4 during Daylight Saving Time)
Zip code: 06098

Seaplane Base Operations

Seaplane Base use: Private use. Permission required prior to landing
Activation date: 05/2002
Control tower: no
ARTCC: BOSTON CENTER
FSS: BRIDGEPORT FLIGHT SERVICE STATION
Attendance: UNATNDD
Segmented circle: no

Seaplane Base Communications

WX AWOS-AV at CT71 (17 nm SE): 129.825
WX ASOS at BDL (18 nm E): PHONE 860-386-3480

Nearby radio navigation aids

VOR radial/distance  VOR name  Freq  Var
BAFr240/23.2BARNES VORTAC113.0014W
PWLr084/23.9PAWLING VOR/DME114.3012W
CTRr208/24.6CHESTER VOR/DME115.1013W
HFDr315/28.8HARTFORD VOR/DME114.9013W
IGNr079/35.4KINGSTON VOR/DME117.6012W
MADr346/39.3MADISON VOR/DME110.4013W

 
NDB name  Hdg/Dist  Freq  Var  ID
GREAT BARRINGTON155/22.139514WGBR --. -... .-.
PHILMONT140/35.327213WPFH .--. ..-. ....

Seaplane Base Services

Runway Information

Runway 1W/19W

Dimensions: 4700 x 1400 ft. / 1433 x 427 m
Surface: water
RUNWAY 1W  RUNWAY 19W
Traffic pattern: leftleft

Seaplane Base Ownership and Management from official FAA records

Ownership: Privately-owned
Owner: 538 WHEELERS POINT, LLC
PO BOX 652
SUFFIELD, CT 06078
Phone 860-623-0245
Manager: GARY PAGANELLI
PO BOX 652
SUFFIELD, CT 06078
Phone 860-623-0245

Additional Remarks

FOR CD CTC YANKEE APCH AT 860-386-3597

Instrument Procedures

There are no published instrument procedures at 08CT.

Some nearby airports with instrument procedures:

4B8 - Robertson Field Airport (16 nm SE)
KBDL - Bradley International Airport (18 nm E)
KHFD - Hartford-Brainard Airport (22 nm SE)
KGBR - Walter J Koladza Airport (22 nm NW)
KBAF - Westfield-Barnes Regional Airport (23 nm NE)
 
Loc | Ops | Rwys | IFR | FBO | Links
Com | Nav | Svcs | Stats | Notes

Silver City Flying Club
 
Area around 08CT (Seavair's Landing Seaplane Base)
 
Road maps at: MapQuest Bing Google
 
Aerial photo
No photo
 
Sectional chart

 
Airport distance calculator
Flying to Seavair's Landing Seaplane Base? Find the distance to fly.

From to 08CT

Sunrise and sunset
Times for 25-Jan-2020
 Local
(UTC-5)
 Zulu
(UTC)
Morning civil twilight06:4211:42
Sunrise07:1212:12
Sunset16:5721:57
Evening civil twilight17:2722:27

Current date and time
Zulu (UTC)  25-Jan-2020 18:48:10
Local (UTC-5)  25-Jan-2020 13:48:10
 
METAR
KBDL 
18nm E 
251751Z 01006KT 2SM -RA BR OVC013 04/02 A3005 RMK AO2 SFC VIS 3 RAE00B29DZB00E29 SLP178 4/002 P0002 60002 T00390022 10044 20017 57047
KHFD 
22nm SE 
251811Z 05006KT 5SM BR OVC013 06/04 A3001 RMK AO2 RAE07 P0000 T00560039
KBAF 
23nm NE 
251820Z 03007KT 2 1/2SM R20/6000VP6000FT -RA BR OVC009 03/02 A3002 RMK AO2 CIG 007V012 PRESFR P0002 T00330022
KMMK 
26nm SE 
251838Z AUTO VRB06KT 9SM OVC011 06/04 A2994 RMK AO2 RAE25 CIG 008V014 P0005 T00560044
KOXC 
26nm S 
251813Z 08014G22KT 2SM -RA BR OVC004 04/03 A2992 RMK AO2 P0002
KCEF 
32nm NE 
251756Z 07006KT 6SM -DZ BR FEW004 OVC010 04/02 A3005 RMK AO2A SLP184 P0001 60001 4/001 T00420024 10045 20012 57048
KPSF 
33nm N 
251803Z AUTO 06010G19KT 3SM BR OVC007 02/01 A2994 RMK AO2 PRESFR T00220006
KDXR 
36nm SW 
251841Z 08012G18KT 3SM -RA BR OVC007 05/04 A2989 RMK AO2 P0001 T00500039
TAF
KBDL 
18nm E 
251726Z 2518/2624 02007KT P6SM VCSH OVC014 WS020/11035KT FM252000 09009KT 5SM -RA BR OVC010 FM252200 18012KT 1SM +RA BR OVC008 FM260100 31004KT 2SM BR VCSH OVC008 FM260400 31004KT 5SM BR SCT008 OVC010 FM261200 26004KT P6SM BKN025 FM261300 26005KT P6SM BKN040
NOTAMs
Click for the latest NOTAMs
NOTAMs are issued by the DoD/FAA and will open in a separate window not controlled by AirNav.

 

 
 

Would you like to see your business listed on this page?

 If your business provides an interesting product or service to pilots, flight crews, aircraft, or users of the Seavair's Landing Seaplane Base, you should consider listing it here.  To start the listing process, click on the button below
 
Add a business
 

Other Pages about Seavair's Landing Seaplane Base

Update a link
 
Copyright © AirNav, LLC. All rights reserved. Privacy Policy  Contact